createdAt,value
2019-01-08T00:01:22.776Z,101548.59
2019-01-08T00:03:52.921Z,101544.69
2019-01-08T00:06:23.047Z,101551.09
2019-01-08T00:08:53.107Z,101541.09
2019-01-08T00:11:23.146Z,101532.90
2019-01-08T00:13:53.322Z,101525.13
2019-01-08T00:16:24.724Z,101529.98
2019-01-08T00:18:54.982Z,101534.51
2019-01-08T00:21:25.054Z,101526.90
2019-01-08T00:23:55.108Z,101526.25
2019-01-08T00:26:25.250Z,101521.15
2019-01-08T00:28:55.424Z,101512.94
2019-01-08T00:31:25.625Z,101525.98
2019-01-08T00:33:55.689Z,101516.80
2019-01-08T00:36:25.737Z,101505.00
2019-01-08T00:38:55.910Z,101501.91
2019-01-08T00:41:26.029Z,101507.89
2019-01-08T00:43:56.108Z,101496.05
2019-01-08T00:46:26.262Z,101496.42
2019-01-08T00:48:56.329Z,101492.06
2019-01-08T00:51:26.477Z,101490.34
2019-01-08T00:53:56.533Z,101483.91
2019-01-08T00:56:28.370Z,101487.14
2019-01-08T00:58:58.505Z,101483.92
2019-01-08T01:01:28.719Z,101470.70
2019-01-08T01:03:58.869Z,101476.95
2019-01-08T01:06:29.015Z,101465.26
2019-01-08T01:08:59.167Z,101439.20
2019-01-08T01:11:29.321Z,101442.64
2019-01-08T01:13:59.488Z,101451.48
2019-01-08T01:16:29.609Z,101445.02
2019-01-08T01:19:03.419Z,101427.70
2019-01-08T01:21:33.505Z,101415.94
2019-01-08T01:24:05.172Z,101422.34
2019-01-08T01:26:35.326Z,101415.67
2019-01-08T01:29:05.515Z,101402.53
2019-01-08T01:31:35.697Z,101395.95
2019-01-08T01:34:06.683Z,101400.73
2019-01-08T01:36:36.828Z,101394.10
2019-01-08T01:39:07.964Z,101382.70
2019-01-08T01:41:38.108Z,101385.69
2019-01-08T01:44:08.318Z,101386.03
2019-01-08T01:46:38.471Z,101401.66
2019-01-08T01:49:08.601Z,101419.91
2019-01-08T01:51:38.828Z,101432.07
2019-01-08T01:54:08.872Z,101442.41
2019-01-08T01:56:38.940Z,101410.94
2019-01-08T01:59:09.239Z,101403.90
2019-01-08T02:01:39.442Z,101391.77
2019-01-08T02:04:09.566Z,101383.02
2019-01-08T02:06:57.294Z,101387.84
2019-01-08T02:09:27.393Z,101377.19
2019-01-08T02:11:57.607Z,101370.02
2019-01-08T02:14:27.649Z,101372.85
2019-01-08T02:17:02.964Z,101366.95
2019-01-08T02:19:33.070Z,101370.16
2019-01-08T02:22:03.187Z,101352.91
2019-01-08T02:24:41.597Z,101352.20
2019-01-08T02:27:12.223Z,101357.19
2019-01-08T02:29:42.344Z,101352.13
2019-01-08T02:32:22.007Z,101362.39
2019-01-08T02:34:52.184Z,101336.50
2019-01-08T02:37:22.249Z,101350.13
2019-01-08T02:39:52.375Z,101338.16
2019-01-08T02:42:22.558Z,101333.47
2019-01-08T02:45:08.107Z,101335.30
2019-01-08T02:47:45.451Z,101322.80
2019-01-08T02:50:15.613Z,101329.84
2019-01-08T02:52:45.786Z,101333.76
2019-01-08T02:55:15.851Z,101314.66
2019-01-08T02:57:46.066Z,101313.80
2019-01-08T03:00:19.955Z,101312.05
2019-01-08T03:03:03.364Z,101308.58
2019-01-08T03:05:33.527Z,101306.44
2019-01-08T03:08:06.533Z,101295.52
2019-01-08T03:10:36.665Z,101295.92
2019-01-08T03:13:06.999Z,101291.56
2019-01-08T03:15:37.047Z,101282.44
2019-01-08T03:18:24.031Z,101275.00
2019-01-08T03:20:54.285Z,101275.44
2019-01-08T03:23:24.576Z,101271.95
2019-01-08T03:25:54.690Z,101262.86
2019-01-08T03:28:24.912Z,101260.25
2019-01-08T03:30:55.103Z,101257.64
2019-01-08T03:33:25.264Z,101256.26
2019-01-08T03:35:55.389Z,101249.73
2019-01-08T03:38:38.475Z,101234.94
2019-01-08T03:41:08.765Z,101232.73
2019-01-08T03:43:38.977Z,101223.16
2019-01-08T03:46:09.123Z,101228.81
2019-01-08T03:48:39.360Z,101223.59
2019-01-08T03:51:09.523Z,101219.23
2019-01-08T03:53:39.786Z,101231.42
2019-01-08T03:56:09.928Z,101208.42
2019-01-08T03:58:52.954Z,101209.72
2019-01-08T04:01:24.419Z,101201.89
2019-01-08T04:03:54.582Z,101214.94
2019-01-08T04:06:24.815Z,101200.58
2019-01-08T04:08:54.958Z,101197.55
2019-01-08T04:11:25.064Z,101192.76
2019-01-08T04:13:57.548Z,101192.76
2019-01-08T04:16:34.824Z,101192.77
2019-01-08T04:23:49.635Z,101187.02
2019-01-08T04:26:25.788Z,101180.89
2019-01-08T04:28:59.118Z,101178.33
2019-01-08T04:31:29.331Z,101175.33
2019-01-08T04:34:07.780Z,101166.59
2019-01-08T04:36:36.745Z,101172.63
2019-01-08T04:39:12.510Z,101156.50
2019-01-08T04:41:48.705Z,101145.20
2019-01-08T04:44:20.285Z,101146.98
2019-01-08T04:46:50.368Z,101143.45
2019-01-08T04:49:31.332Z,101134.72
2019-01-08T04:52:01.378Z,101153.24
2019-01-08T04:54:31.434Z,101129.91
2019-01-08T04:57:04.044Z,101126.73
2019-01-08T04:59:58.977Z,101110.14
2019-01-08T05:02:35.799Z,101110.18
2019-01-08T05:05:06.815Z,101131.66
2019-01-08T05:07:36.956Z,101114.91
2019-01-08T05:10:07.274Z,101113.30
2019-01-08T05:13:04.209Z,101117.77
2019-01-08T05:15:37.146Z,101101.80
2019-01-08T05:18:10.374Z,101098.31
2019-01-08T05:20:40.654Z,101107.05
2019-01-08T05:23:10.745Z,101093.18
2019-01-08T05:25:43.391Z,101090.64
2019-01-08T05:28:27.196Z,101088.94
2019-01-08T05:30:58.463Z,101075.93
2019-01-08T05:33:28.766Z,101075.50
2019-01-08T05:36:01.085Z,101072.02
2019-01-08T05:38:31.262Z,101062.84
2019-01-08T05:41:01.496Z,101085.50
2019-01-08T05:43:36.309Z,101075.93
2019-01-08T05:46:29.485Z,101067.20
2019-01-08T05:49:01.472Z,101041.42
2019-01-08T05:51:31.739Z,101083.02
2019-01-08T05:54:01.888Z,101083.45
2019-01-08T05:57:01.132Z,101053.02
2019-01-08T05:59:43.563Z,101039.14
2019-01-08T06:02:13.745Z,101054.00
2019-01-08T06:04:43.917Z,101051.24
2019-01-08T06:07:47.043Z,101048.72
2019-01-08T06:10:33.839Z,101071.51
2019-01-08T06:13:25.428Z,101052.96
2019-01-08T06:16:19.849Z,101047.14
2019-01-08T06:18:50.001Z,101033.08
2019-01-08T06:21:35.218Z,101054.70
2019-01-08T06:24:16.720Z,101046.40
2019-01-08T06:26:49.339Z,101049.45
2019-01-08T06:29:19.571Z,101051.19
2019-01-08T06:31:49.655Z,101059.87
2019-01-08T06:34:19.798Z,101029.03
2019-01-08T06:36:59.976Z,101042.02
2019-01-08T06:39:45.149Z,101048.09
2019-01-08T06:42:15.282Z,101048.09
2019-01-08T06:44:45.329Z,101041.15
2019-01-08T06:47:15.549Z,101041.63
2019-01-08T06:50:17.475Z,101024.25
2019-01-08T06:52:55.063Z,101023.39
2019-01-08T06:55:25.259Z,101012.09
2019-01-08T06:57:55.362Z,101030.34
2019-01-08T07:00:33.022Z,101014.27
2019-01-08T07:03:02.817Z,101037.33
2019-01-08T07:05:32.914Z,101028.25
2019-01-08T07:08:26.642Z,101029.95
2019-01-08T07:10:56.677Z,101024.34
2019-01-08T07:13:32.533Z,101019.13
2019-01-08T07:16:02.682Z,101014.31
2019-01-08T07:18:32.769Z,101028.69
2019-01-08T07:21:02.966Z,101028.73
2019-01-08T07:23:46.488Z,101048.36
2019-01-08T07:26:16.841Z,101017.95
2019-01-08T07:29:00.792Z,101018.47
2019-01-08T07:31:31.022Z,101020.69
2019-01-08T07:34:02.742Z,101036.89
2019-01-08T07:36:32.873Z,101037.48
2019-01-08T07:39:11.543Z,101034.57
2019-01-08T07:41:45.957Z,101008.19
2019-01-08T07:44:21.825Z,100999.17
2019-01-08T07:46:51.953Z,101004.06
2019-01-08T07:49:22.075Z,101016.67
2019-01-08T07:51:52.243Z,100983.16
2019-01-08T07:54:22.748Z,101005.73
2019-01-08T07:56:58.293Z,101001.78
2019-01-08T07:59:38.040Z,101007.03
2019-01-08T08:02:08.162Z,101009.64
2019-01-08T08:04:38.298Z,101010.55
2019-01-08T08:07:08.428Z,101005.80
2019-01-08T08:09:38.564Z,101020.22
2019-01-08T08:12:08.608Z,101021.20
2019-01-08T08:14:38.773Z,101011.75
2019-01-08T08:17:11.842Z,101021.86
2019-01-08T08:19:55.620Z,101020.19
2019-01-08T08:22:25.770Z,101025.05
2019-01-08T08:24:56.109Z,101047.70
2019-01-08T08:27:32.723Z,101017.76
2019-01-08T08:30:07.060Z,101016.08
2019-01-08T08:32:41.429Z,101013.54
2019-01-08T08:35:20.491Z,101018.36
2019-01-08T08:37:50.562Z,101002.77
2019-01-08T08:40:20.688Z,101004.57
2019-01-08T08:42:50.822Z,101011.13
2019-01-08T08:45:21.009Z,101005.91
2019-01-08T08:47:51.243Z,101001.98
2019-01-08T08:50:50.474Z,101024.24
2019-01-08T08:53:20.531Z,101012.06
2019-01-08T08:55:50.608Z,101021.23
2019-01-08T08:58:43.569Z,101012.59
2019-01-08T09:01:13.700Z,100995.59
2019-01-08T09:03:52.437Z,101024.58
2019-01-08T09:06:25.094Z,101027.86
2019-01-08T09:08:57.988Z,101032.98
2019-01-08T09:11:28.190Z,101008.55
2019-01-08T09:14:03.117Z,101051.64
2019-01-08T09:16:39.830Z,101041.64
2019-01-08T09:19:19.066Z,101042.95
2019-01-08T09:21:49.403Z,101050.78
2019-01-08T09:24:19.479Z,101040.81
2019-01-08T09:26:52.247Z,101050.88
2019-01-08T09:29:36.082Z,101075.50
2019-01-08T09:32:06.712Z,101059.62
2019-01-08T09:34:43.993Z,101070.77
2019-01-08T09:37:22.365Z,101078.95
2019-01-08T09:40:10.097Z,101074.95
2019-01-08T09:42:40.331Z,101095.70
2019-01-08T09:45:10.844Z,101093.48
2019-01-08T09:47:41.283Z,101091.08
2019-01-08T09:50:26.502Z,101108.67
2019-01-08T09:53:04.757Z,101112.27
2019-01-08T09:55:36.829Z,101122.39
2019-01-08T09:58:10.034Z,101124.20
2019-01-08T10:00:40.161Z,101117.36
2019-01-08T10:03:11.415Z,101100.08
2019-01-08T10:05:50.817Z,101116.68
2019-01-08T10:08:33.568Z,101117.15
2019-01-08T10:11:03.750Z,101099.42
2019-01-08T10:13:33.991Z,101119.94
2019-01-08T10:16:04.337Z,101119.54
2019-01-08T10:18:36.332Z,101126.06
2019-01-08T10:21:30.915Z,101126.50
2019-01-08T10:24:02.071Z,101127.88
2019-01-08T10:26:32.225Z,101133.58
2019-01-08T10:29:02.395Z,101111.88
2019-01-08T10:31:32.881Z,101133.75
2019-01-08T10:34:03.042Z,101123.84
2019-01-08T10:36:33.163Z,101140.97
2019-01-08T10:39:19.246Z,101153.47
2019-01-08T10:41:49.502Z,101119.66
2019-01-08T10:44:19.546Z,101132.91
2019-01-08T10:46:49.850Z,101150.81
2019-01-08T10:49:20.109Z,101128.05
2019-01-08T10:51:50.348Z,101132.63
2019-01-08T10:54:20.687Z,101109.32
2019-01-08T10:56:51.291Z,101157.94
2019-01-08T10:59:29.533Z,101137.12
2019-01-08T11:01:59.748Z,101131.45
2019-01-08T11:04:29.882Z,101126.41
2019-01-08T11:07:00.067Z,101131.08
2019-01-08T11:09:30.216Z,101135.33
2019-01-08T11:12:00.272Z,101118.87
2019-01-08T11:14:59.888Z,101129.05
2019-01-08T11:17:45.933Z,101134.25
2019-01-08T11:20:16.146Z,101133.47
2019-01-08T11:23:09.402Z,101144.28
2019-01-08T11:25:44.465Z,101155.09
2019-01-08T11:28:14.621Z,101150.53
2019-01-08T11:30:44.680Z,101169.76
2019-01-08T11:33:14.918Z,101155.87
2019-01-08T11:35:57.344Z,101152.06
2019-01-08T11:38:36.778Z,101145.03
2019-01-08T11:41:14.014Z,101135.35
2019-01-08T11:43:45.975Z,101137.49
2019-01-08T11:46:16.275Z,101151.42
2019-01-08T11:49:04.439Z,101130.06
2019-01-08T11:51:41.754Z,101117.33
2019-01-08T11:54:17.570Z,101139.16
2019-01-08T11:56:49.161Z,101115.36
2019-01-08T11:59:23.895Z,101152.34
2019-01-08T12:01:57.159Z,101151.33
2019-01-08T12:04:25.028Z,101116.25
2019-01-08T12:06:55.082Z,101136.85
2019-01-08T12:10:29.311Z,101147.81
2019-01-08T12:12:27.807Z,101117.66
2019-01-08T12:14:57.970Z,101124.83
2019-01-08T12:17:29.981Z,101131.25
2019-01-08T12:20:00.269Z,101146.28
2019-01-08T12:22:30.406Z,101161.03
2019-01-08T12:25:29.611Z,101137.41
2019-01-08T12:27:59.809Z,101143.82
2019-01-08T12:30:30.044Z,101163.42
2019-01-08T12:33:00.083Z,101138.75
2019-01-08T12:35:30.153Z,101133.68
2019-01-08T12:38:00.338Z,101147.55
2019-01-08T12:40:48.707Z,101127.69
2019-01-08T12:43:18.848Z,101147.99
2019-01-08T12:45:49.017Z,101127.56
2019-01-08T12:48:19.106Z,101136.39
2019-01-08T12:50:49.149Z,101128.47
2019-01-08T12:53:19.264Z,101102.75
2019-01-08T12:55:49.488Z,101115.59
2019-01-08T12:58:22.641Z,101114.47
2019-01-08T13:01:03.393Z,101155.55
2019-01-08T13:03:33.506Z,101144.27
2019-01-08T13:06:03.720Z,101167.84
2019-01-08T13:08:33.786Z,101154.13
2019-01-08T13:11:07.520Z,101156.63
2019-01-08T13:13:37.550Z,101149.27
2019-01-08T13:16:07.649Z,101150.52
2019-01-08T13:19:00.145Z,101154.71
2019-01-08T13:21:37.910Z,101154.75
2019-01-08T13:24:08.114Z,101123.77
2019-01-08T13:26:38.321Z,101114.70
2019-01-08T13:29:08.365Z,101141.52
2019-01-08T13:31:39.227Z,101143.90
2019-01-08T13:34:24.493Z,101156.38
2019-01-08T13:36:54.664Z,101136.83
2019-01-08T13:39:27.966Z,101138.03
2019-01-08T13:41:58.213Z,101134.52
2019-01-08T13:44:37.799Z,101129.30
2019-01-08T13:47:09.727Z,101142.78
2019-01-08T13:49:40.085Z,101147.10
2019-01-08T13:52:17.563Z,101136.59
2019-01-08T13:54:55.467Z,101147.86
2019-01-08T13:57:31.122Z,101162.11
2019-01-08T14:00:01.377Z,101160.66
2019-01-08T14:02:32.112Z,101166.20
2019-01-08T14:05:22.453Z,101160.06
2019-01-08T14:08:20.610Z,101134.91
2019-01-08T14:10:56.483Z,101180.23
2019-01-08T14:13:38.982Z,101178.89
2019-01-08T14:16:17.174Z,101161.73
2019-01-08T14:18:52.601Z,101168.05
2019-01-08T14:21:22.717Z,101204.81
2019-01-08T14:23:53.020Z,101179.55
2019-01-08T14:26:23.247Z,101183.19
2019-01-08T14:28:53.405Z,101192.66
2019-01-08T14:31:26.549Z,101181.36
2019-01-08T14:34:05.553Z,101192.49
2019-01-08T14:36:35.714Z,101188.85
2019-01-08T14:39:07.984Z,101181.68
2019-01-08T14:41:38.183Z,101191.45
2019-01-08T14:44:08.388Z,101204.98
2019-01-08T14:46:38.576Z,101204.58
2019-01-08T14:49:14.431Z,101201.97
2019-01-08T14:51:49.222Z,101211.23
2019-01-08T14:54:19.445Z,101212.30
2019-01-08T14:56:49.603Z,101227.25
2019-01-08T14:59:21.667Z,101232.87
2019-01-08T15:01:53.456Z,101234.56
2019-01-08T15:04:25.193Z,101230.66
2019-01-08T15:06:55.421Z,101233.23
2019-01-08T15:09:26.787Z,101226.06
2019-01-08T15:12:09.984Z,101216.03
2019-01-08T15:14:40.246Z,101221.42
2019-01-08T15:17:12.823Z,101234.65
2019-01-08T15:19:50.522Z,101239.48
2019-01-08T15:22:20.113Z,101249.41
2019-01-08T15:24:53.336Z,101229.89
2019-01-08T15:27:34.866Z,101273.81
2019-01-08T15:30:09.060Z,101249.95
2019-01-08T15:32:39.213Z,101245.12
2019-01-08T15:35:09.472Z,101261.60
2019-01-08T15:37:51.913Z,101259.50
2019-01-08T15:40:22.222Z,101258.75
2019-01-08T15:42:59.549Z,101266.66
2019-01-08T15:45:29.713Z,101258.42
2019-01-08T15:47:59.856Z,101271.94
2019-01-08T15:50:30.040Z,101292.39
2019-01-08T15:53:01.928Z,101282.89
2019-01-08T15:55:32.141Z,101275.62
2019-01-08T15:58:02.256Z,101262.73
2019-01-08T16:00:32.482Z,101264.30
2019-01-08T16:03:14.249Z,101270.87
2019-01-08T16:05:44.395Z,101291.77
2019-01-08T16:08:37.555Z,101277.53
2019-01-08T16:11:07.799Z,101285.41
2019-01-08T16:13:37.985Z,101300.66
2019-01-08T16:16:19.405Z,101312.93
2019-01-08T16:18:59.956Z,101303.05
2019-01-08T16:21:35.095Z,101326.61
2019-01-08T16:28:01.729Z,101342.48
2019-01-08T16:30:50.565Z,101337.83
2019-01-08T16:33:38.894Z,101343.68
2019-01-08T16:36:12.335Z,101339.59
2019-01-08T16:38:54.352Z,101341.81
2019-01-08T16:41:37.002Z,101340.28
2019-01-08T16:44:07.257Z,101348.73
2019-01-08T16:46:44.859Z,101350.20
2019-01-08T16:49:32.945Z,101353.14
2019-01-08T16:52:13.976Z,101364.34
2019-01-08T16:54:43.627Z,101375.56
2019-01-08T16:57:27.836Z,101360.44
2019-01-08T17:00:01.184Z,101362.11
2019-01-08T17:02:36.461Z,101347.38
2019-01-08T17:05:44.266Z,101364.23
2019-01-08T17:08:24.636Z,101341.31
2019-01-08T17:10:55.085Z,101351.56
2019-01-08T17:14:37.856Z,101332.48
2019-01-08T17:18:02.073Z,101355.38
2019-01-08T17:21:11.376Z,101349.05
2019-01-08T17:24:03.929Z,101358.30
2019-01-08T17:29:45.379Z,101372.09
2019-01-08T17:32:49.204Z,101385.53
2019-01-08T17:35:30.023Z,101366.77
2019-01-08T17:38:11.429Z,101356.41
2019-01-08T17:40:54.111Z,101342.34
2019-01-08T17:43:47.153Z,101349.86
2019-01-08T17:46:31.394Z,101379.39
2019-01-08T17:49:05.946Z,101357.88
2019-01-08T17:51:59.513Z,101354.39
2019-01-08T17:54:40.681Z,101355.27
2019-01-08T17:57:44.536Z,101355.72
2019-01-08T18:03:23.311Z,101421.31
2019-01-08T18:06:45.823Z,101401.99
2019-01-08T18:09:32.554Z,101385.86
2019-01-08T18:12:42.697Z,101371.64
2019-01-08T18:16:08.104Z,101397.62
2019-01-08T18:19:15.341Z,101418.96
2019-01-08T18:21:51.217Z,101459.01
2019-01-08T18:24:33.183Z,101444.87
2019-01-08T18:27:19.933Z,101423.44
2019-01-08T18:29:58.318Z,101421.33
2019-01-08T18:32:48.706Z,101404.62
2019-01-08T18:35:37.494Z,101413.09
2019-01-08T18:38:23.489Z,101425.56
2019-01-08T18:40:58.785Z,101425.78
2019-01-08T18:43:33.029Z,101409.86
2019-01-08T18:46:03.286Z,101407.23
2019-01-08T18:48:50.439Z,101409.70
2019-01-08T18:51:44.879Z,101419.43
2019-01-08T18:54:15.224Z,101420.15
2019-01-08T18:56:45.613Z,101421.22
2019-01-08T18:59:35.619Z,101431.55
2019-01-08T19:02:15.069Z,101445.38
2019-01-08T19:04:47.228Z,101433.53
2019-01-08T19:07:26.867Z,101429.48
2019-01-08T19:10:38.349Z,101426.87
2019-01-08T19:13:10.938Z,101439.36
2019-01-08T19:15:41.597Z,101422.86
2019-01-08T19:18:12.029Z,101425.83
2019-01-08T19:21:32.047Z,101422.69
2019-01-08T19:24:07.712Z,101421.23
2019-01-08T19:26:43.293Z,101424.80
2019-01-08T19:29:47.977Z,101437.28
2019-01-08T19:32:30.451Z,101423.84
2019-01-08T19:35:31.213Z,101445.37
2019-01-08T19:37:55.330Z,101448.03
2019-01-08T19:40:37.288Z,101444.45
2019-01-08T19:43:07.742Z,101440.73
2019-01-08T19:46:07.899Z,101448.77
2019-01-08T19:48:46.150Z,101442.12
2019-01-08T19:51:34.829Z,101438.86
2019-01-08T19:54:27.980Z,101459.12
2019-01-08T19:57:00.998Z,101467.14
2019-01-08T19:59:42.155Z,101482.01
2019-01-08T20:02:29.981Z,101492.65
2019-01-08T20:05:16.296Z,101480.02
2019-01-08T20:07:51.510Z,101485.78
2019-01-08T20:10:53.894Z,101479.40
2019-01-08T20:13:40.266Z,101480.05
2019-01-08T20:17:30.889Z,101465.61
2019-01-08T20:20:44.773Z,101475.55
2019-01-08T20:23:30.038Z,101469.50
2019-01-08T20:26:42.352Z,101477.56
2019-01-08T20:29:10.296Z,101477.66
2019-01-08T20:32:06.003Z,101481.20
2019-01-08T20:34:54.524Z,101467.06
2019-01-08T20:37:24.912Z,101484.69
2019-01-08T20:39:55.359Z,101472.37
2019-01-08T20:45:57.408Z,101458.02
2019-01-08T20:52:33.416Z,101466.45
2019-01-08T20:55:35.364Z,101476.45
2019-01-08T20:58:07.510Z,101478.59
2019-01-08T21:00:38.358Z,101479.89
2019-01-08T21:03:10.686Z,101471.81
2019-01-08T21:05:51.649Z,101481.13
2019-01-08T21:08:32.964Z,101476.55
2019-01-08T21:11:03.307Z,101465.91
2019-01-08T21:13:33.584Z,101478.99
2019-01-08T21:16:03.839Z,101490.92
2019-01-08T21:18:42.270Z,101484.91
2019-01-08T21:21:24.891Z,101479.56
2019-01-08T21:23:55.380Z,101469.75
2019-01-08T21:26:54.441Z,101476.38
2019-01-08T21:29:34.797Z,101471.00
2019-01-08T21:32:14.307Z,101492.83
2019-01-08T21:34:44.801Z,101505.46
2019-01-08T21:37:15.203Z,101499.78
2019-01-08T21:39:47.019Z,101502.78
2019-01-08T21:42:17.390Z,101519.67
2019-01-08T21:44:53.452Z,101499.27
2019-01-08T21:47:33.456Z,101511.03
2019-01-08T21:50:03.915Z,101529.69
2019-01-08T21:52:34.162Z,101532.28
2019-01-08T21:55:04.478Z,101518.31
2019-01-08T21:57:34.783Z,101499.23
2019-01-08T22:00:05.905Z,101496.23
2019-01-08T22:02:36.141Z,101502.94
2019-01-08T22:05:22.984Z,101503.23
2019-01-08T22:07:53.471Z,101507.48
2019-01-08T22:10:23.845Z,101486.91
2019-01-08T22:12:54.259Z,101489.25
2019-01-08T22:15:24.602Z,101489.03
2019-01-08T22:17:55.083Z,101495.52
2019-01-08T22:20:40.133Z,101487.86
2019-01-08T22:23:19.635Z,101486.39
2019-01-08T22:25:49.939Z,101488.00
2019-01-08T22:28:20.132Z,101475.81
2019-01-08T22:30:54.015Z,101492.07
2019-01-08T22:34:00.729Z,101487.54
2019-01-08T22:36:32.526Z,101482.62
2019-01-08T22:39:05.941Z,101476.45
2019-01-08T22:41:36.471Z,101468.48
2019-01-08T22:44:13.449Z,101503.47
2019-01-08T22:46:43.632Z,101491.13
2019-01-08T22:49:28.090Z,101501.80
2019-01-08T22:51:58.581Z,101487.37
2019-01-08T22:54:28.746Z,101490.67
2019-01-08T22:56:58.998Z,101504.89
2019-01-08T22:59:40.277Z,101505.68
2019-01-08T23:02:21.842Z,101498.75
2019-01-08T23:05:17.288Z,101497.81
2019-01-08T23:07:53.690Z,101512.03
2019-01-08T23:10:23.935Z,101497.00
2019-01-08T23:12:54.364Z,101489.38
2019-01-08T23:15:28.658Z,101491.40
2019-01-08T23:18:11.811Z,101488.03
2019-01-08T23:20:56.946Z,101482.95
2019-01-08T23:23:27.238Z,101495.39
2019-01-08T23:25:57.428Z,101500.02
2019-01-08T23:28:29.711Z,101496.45
2019-01-08T23:31:12.231Z,101502.05
2019-01-08T23:33:51.993Z,101497.66
2019-01-08T23:36:23.474Z,101503.41
2019-01-08T23:40:33.832Z,101481.81
2019-01-08T23:42:49.596Z,101480.87
2019-01-08T23:45:22.682Z,101491.98
2019-01-08T23:47:53.000Z,101505.70
2019-01-08T23:50:23.256Z,101503.61
2019-01-08T23:53:07.504Z,101500.02
2019-01-08T23:55:50.849Z,101503.83
2019-01-08T23:58:22.112Z,101515.80
